Latest Weather Observations for Loxton

IDS60801

Issued at 7:12 pm CST Thursday 16 August 2018 (issued every 10 minutes, with the page automatically refreshed every 10 minutes)

About weather observations | Map of weather stations | Latest weather observations for SA | Other Formats
Station Details ID: 024024 Name: LOXTON RESEARCH CENTRE Lat: -34.44 Lon: 140.60 Height: 30.1 m
Data from the previous 72 hours. | See also: Recent months at Loxton
Date/Time
CST
Temp
°C
App
Temp
°C
Dew
Point
°C
Rel
Hum
%
Delta-T
°C
Wind Press
QNH
hPa
Press
MSL
hPa
Rain since
9am
mm
Dir  Spd
km/h
Gust
km/h
Spd
kts
Gust
kts
16/07:00pm 12.0 9.5 5.0 62 3.2 WNW 7 11 4 6 1016.3 1016.3 0.0
16/06:30pm 12.4 8.4 5.0 60 3.4 WNW 15 24 8 13 1016.2 1016.2 0.0
16/06:00pm 13.5 10.8 3.5 51 4.5 W 7 11 4 6 1015.9 1015.9 0.0
16/05:30pm 13.8 10.3 3.3 49 4.7 W 11 17 6 9 1015.6 1015.6 0.0
16/05:00pm 14.1 10.5 3.2 48 4.9 W 11 17 6 9 1015.5 1015.5 0.0
16/04:30pm 14.1 10.5 2.9 47 5.0 WSW 11 19 6 10 1015.4 1015.4 0.0
16/04:00pm 14.4 10.9 3.3 47 5.0 SW 11 19 6 10 1015.4 1015.4 0.0
16/03:30pm 14.7 9.7 1.6 41 5.7 WSW 17 22 9 12 1015.6 1015.6 0.0
16/03:00pm 15.4 10.2 0.4 36 6.4 W 17 22 9 12 1015.7 1015.7 0.0
16/02:30pm 15.3 11.0 1.3 38 6.1 WSW 13 26 7 14 1015.8 1015.8 0.0
16/02:00pm 14.5 9.1 1.3 40 5.7 WSW 19 28 10 15 1016.0 1016.0 0.0
16/01:30pm 14.1 9.8 3.5 49 4.8 SW 15 22 8 12 1016.1 1016.1 0.0
16/01:00pm 15.0 10.7 1.1 39 6.0 WNW 13 26 7 14 1016.2 1016.2 0.0
16/12:30pm 14.0 9.2 2.7 46 5.0 W 17 20 9 11 1016.9 1016.9 0.0
16/12:00pm 15.0 10.3 3.0 44 5.4 WSW 17 24 9 13 1017.2 1017.2 0.0
16/11:30am 13.7 9.8 3.2 49 4.7 WSW 13 20 7 11 1017.7 1017.7 0.0
16/11:00am 13.9 10.4 5.4 56 4.0 W 13 22 7 12 1018.0 1018.0 0.0
16/10:30am 12.9 9.4 5.6 61 3.4 WSW 13 22 7 12 1018.1 1018.1 0.0
16/10:00am 12.6 9.7 6.5 66 2.9 W 11 20 6 11 1018.1 1018.1 0.0
16/09:30am 11.4 7.6 6.0 69 2.5 W 15 20 8 11 1018.1 1018.1 0.0
16/09:00am 10.2 6.9 6.6 78 1.7 WNW 13 20 7 11 1018.1 1018.1 0.0
16/08:30am 8.4 5.1 6.4 87 0.9 NW 13 20 7 11 1017.9 1017.9 0.0
16/08:00am 7.1 4.4 5.8 91 0.6 NW 9 13 5 7 1017.7 1017.7 0.0
16/07:30am 6.5 3.8 5.6 94 0.4 NW 9 11 5 6 1017.2 1017.2 0.0
16/07:00am 6.0 3.2 5.3 95 0.3 WNW 9 11 5 6 1017.0 1017.0 0.0
16/06:30am 6.2 3.4 5.3 94 0.4 WNW 9 13 5 7 1016.6 1016.6 0.0
16/06:00am 6.2 3.1 5.5 95 0.3 WNW 11 15 6 8 1016.5 1016.5 0.0
16/05:30am 6.4 3.2 5.3 93 0.5 NW 11 13 6 7 1016.2 1016.2 0.0
16/05:00am 6.4 3.7 5.5 94 0.4 NW 9 13 5 7 1016.1 1016.1 0.0
16/04:30am 6.6 3.9 5.5 93 0.5 WNW 9 13 5 7 1016.1 1016.1 0.0
16/04:00am 6.9 3.9 5.8 93 0.5 WNW 11 15 6 8 1015.8 1015.8 0.0
16/03:30am 7.0 4.7 5.7 91 0.6 WNW 7 11 4 6 1015.7 1015.7 0.0
16/03:00am 7.1 4.1 5.8 91 0.6 WNW 11 15 6 8 1015.7 1015.7 0.0
16/02:30am 7.1 4.5 6.0 93 0.5 NW 9 13 5 7 1015.9 1015.9 0.0
16/02:00am 7.0 4.7 5.7 91 0.6 WNW 7 9 4 5 1016.0 1016.0 0.0
16/01:30am 7.9 4.9 6.1 88 0.8 WNW 11 15 6 8 1015.8 1015.8 0.0
16/01:00am 8.4 5.8 6.0 85 1.1 WNW 9 15 5 8 1015.8 1015.8 0.0
16/12:30am 9.0 5.6 5.9 81 1.4 WNW 13 17 7 9 1015.8 1015.8 0.0
16/12:00am 9.6 6.2 5.7 76 1.8 W 13 24 7 13 1015.8 1015.8 0.0
 
Date/Time
CST
Temp
°C
App
Temp
°C
Dew
Point
°C
Rel
Hum
%
Delta-T
°C
Wind Press
QNH
hPa
Press
MSL
hPa
Rain since
9am
mm
Dir  Spd
km/h
Gust
km/h
Spd
kts
Gust
kts
15/11:30pm 9.4 6.0 5.9 79 1.6 W 13 19 7 10 1015.6 1015.6 0.0
15/11:00pm 10.0 7.0 6.1 77 1.8 W 11 15 6 8 1015.7 1015.7 0.0
15/10:30pm 9.9 6.7 6.9 81 1.4 W 13 17 7 9 1015.5 1015.5 0.0
15/10:00pm 10.2 7.5 7.3 82 1.4 W 11 15 6 8 1015.7 1015.7 0.0
15/09:30pm 10.7 7.2 7.1 78 1.7 W 15 22 8 12 1015.3 1015.3 0.0
15/09:00pm 10.9 7.4 7.4 79 1.7 WSW 15 20 8 11 1015.1 1015.1 0.0
15/08:30pm 11.4 7.9 7.2 75 2.0 WSW 15 24 8 13 1015.2 1015.2 0.0
15/08:00pm 12.0 7.9 6.3 68 2.7 WSW 17 26 9 14 1014.7 1014.7 0.0
15/07:30pm 12.1 8.2 7.3 72 2.3 W 17 24 9 13 1014.5 1014.5 0.0
15/07:00pm 12.3 9.7 7.8 74 2.2 W 11 17 6 9 1014.3 1014.3 0.0
15/06:30pm 12.8 9.5 7.9 72 2.4 SW 15 24 8 13 1013.9 1013.9 0.0
15/06:00pm 13.2 9.9 7.9 70 2.6 WSW 15 24 8 13 1013.4 1013.4 0.0
15/05:30pm 13.2 9.7 8.8 74 2.2 WSW 17 26 9 14 1013.1 1013.1 0.0
15/05:14pm 14.1 8.4 8.3 68 2.9 WSW 28 48 15 26 1013.1 1013.1 0.0
15/05:00pm 15.4 10.7 7.8 60 3.8 W 22 33 12 18 1012.5 1012.6 0.0
15/04:30pm 14.9 8.5 8.6 66 3.2 W 32 44 17 24 1012.2 1012.3 0.0
15/04:00pm 17.5 11.4 6.6 48 5.4 W 28 43 15 23 1011.6 1011.7 0.0
15/03:30pm 18.4 12.7 6.6 46 5.9 W 26 43 14 23 1011.2 1011.3 0.0
15/03:00pm 18.2 11.9 5.7 44 6.1 W 28 43 15 23 1011.0 1011.1 0.0
15/02:30pm 18.2 12.2 5.5 43 6.2 WSW 26 41 14 22 1011.1 1011.2 0.0
15/02:00pm 18.8 12.5 5.5 41 6.5 W 28 48 15 26 1011.0 1011.1 0.0
15/01:58pm 18.6 12.3 5.5 42 6.4 W 28 48 15 26 1011.0 1011.1 0.0
15/01:30pm 19.2 12.9 5.6 41 6.7 W 28 44 15 24 1011.1 1011.2 0.0
15/01:00pm 19.0 13.6 6.4 43 6.3 W 24 37 13 20 1011.4 1011.5 0.0
15/12:30pm 18.6 12.4 6.1 44 6.2 WNW 28 41 15 22 1011.6 1011.7 0.0
15/12:00pm 18.5 12.4 6.4 45 6.0 W 28 41 15 22 1011.9 1012.0 0.0
15/11:30am 18.8 12.7 5.0 40 6.7 WNW 26 39 14 21 1012.2 1012.3 0.0
15/11:00am 17.8 11.7 2.5 36 7.0 WNW 24 39 13 21 1012.5 1012.6 0.0
15/10:30am 17.1 11.1 1.3 34 7.0 NW 22 35 12 19 1012.9 1012.9 0.0
15/10:00am 15.1 11.3 2.0 41 5.8 NW 11 20 6 11 1013.2 1013.2 0.0
15/09:30am 14.2 10.9 2.2 44 5.3 NNW 9 17 5 9 1013.1 1013.1 0.0
15/09:00am 13.9 10.2 2.3 45 5.1 NNW 11 17 6 9 1013.0 1013.0 0.0
15/08:30am 12.9 10.0 2.4 49 4.6 NNW 7 15 4 8 1012.9 1012.9 0.0
15/08:00am 12.5 9.1 1.8 48 4.6 NNW 9 15 5 8 1012.6 1012.7 0.0
15/07:30am 12.5 9.5 1.8 48 4.6 NNW 7 13 4 7 1012.3 1012.4 0.0
15/07:00am 12.4 9.0 1.7 48 4.6 NW 9 17 5 9 1012.2 1012.3 0.0
15/06:30am 12.5 8.6 1.2 46 4.8 NNW 11 19 6 10 1012.1 1012.2 0.0
15/06:00am 12.6 9.1 1.3 46 4.8 NW 9 15 5 8 1012.5 1012.6 0.0
15/05:30am 13.0 9.1 1.0 44 5.1 NNW 11 17 6 9 1012.2 1012.3 0.0
15/05:00am 12.9 9.0 1.1 44 5.0 NW 11 17 6 9 1012.2 1012.3 0.0
15/04:30am 12.8 9.3 1.3 45 4.9 NW 9 15 5 8 1012.0 1012.1 0.0
15/04:00am 12.4 8.1 1.0 45 4.8 NNW 13 20 7 11 1011.7 1011.8 0.0
15/03:30am 12.7 7.9 0.5 43 5.1 NNW 15 20 8 11 1011.6 1011.7 0.0
15/03:00am 12.6 7.9 0.7 44 5.0 NNW 15 22 8 12 1011.9 1012.0 0.0
15/02:30am 12.6 7.9 0.7 44 5.0 NNW 15 24 8 13 1012.3 1012.4 0.0
15/02:00am 12.8 7.7 0.7 43 5.1 NNW 17 24 9 13 1012.8 1012.8 0.0
15/01:30am 12.8 8.5 1.0 44 5.0 NNW 13 20 7 11 1013.2 1013.2 0.0
15/01:00am 13.1 8.4 1.1 44 5.1 NNW 15 24 8 13 1013.4 1013.4 0.0
15/12:30am 13.0 8.4 1.3 45 5.0 N 15 26 8 14 1013.5 1013.5 0.0
15/12:00am 13.1 8.0 0.8 43 5.2 N 17 24 9 13 1014.0 1014.0 0.0
 
Date/Time
CST
Temp
°C
App
Temp
°C
Dew
Point
°C
Rel
Hum
%
Delta-T
°C
Wind Press
QNH
hPa
Press
MSL
hPa
Rain since
9am
mm
Dir  Spd
km/h
Gust
km/h
Spd
kts
Gust
kts
14/11:30pm 14.0 9.2 0.2 39 5.8 N 15 24 8 13 1014.6 1014.6 0.0
14/11:00pm 14.6 9.4 -0.2 36 6.2 N 17 24 9 13 1014.8 1014.8 0.0
14/10:30pm 14.8 9.6 0.1 36 6.2 NNW 17 24 9 13 1015.3 1015.3 0.0
14/10:00pm 15.1 9.9 0.3 36 6.3 NNW 17 26 9 14 1015.3 1015.3 0.0
14/09:30pm 14.1 9.4 1.0 41 5.6 NNW 15 24 8 13 1015.3 1015.3 0.0
14/09:00pm 15.1 10.7 0.6 37 6.2 NNW 13 20 7 11 1015.5 1015.5 0.0
14/08:30pm 15.3 11.7 0.6 36 6.3 NNW 9 15 5 8 1015.8 1015.8 0.0
14/08:00pm 16.2 12.1 0.1 33 6.9 N 11 17 6 9 1015.9 1015.9 0.0
14/07:30pm 17.4 12.5 -0.7 29 7.7 NNW 15 20 8 11 1015.9 1015.9 0.0
14/07:00pm 17.8 12.9 -0.7 28 7.9 NNW 15 20 8 11 1015.7 1015.7 0.0
14/06:30pm 18.4 13.8 -1.1 26 8.3 NNW 13 19 7 10 1015.4 1015.4 0.0
14/06:00pm 19.0 14.7 -1.5 25 8.7 N 11 17 6 9 1015.5 1015.5 0.0
14/05:30pm 20.0 15.3 -1.8 23 9.3 NNW 13 19 7 10 1015.9 1015.9 0.0
14/05:00pm 21.2 16.0 -2.7 20 10.1 NNW 15 24 8 13 1016.2 1016.2 0.0
14/04:30pm 21.6 16.2 -1.3 21 10.0 NNW 17 22 9 12 1016.4 1016.4 0.0
14/04:00pm 21.7 16.2 -2.0 20 10.2 NNW 17 26 9 14 1016.8 1016.8 0.0
14/03:30pm 21.4 15.8 0.2 24 9.5 NNW 19 30 10 16 1017.2 1017.2 0.0
14/03:00pm 20.9 15.5 1.5 27 8.9 NNW 19 30 10 16 1017.8 1017.8 0.0
14/02:30pm 20.3 14.7 1.0 27 8.7 NNW 20 33 11 18 1018.4 1018.4 0.0
14/02:00pm 20.1 14.5 1.0 28 8.6 NW 20 32 11 17 1018.9 1018.9 0.0
14/01:30pm 19.5 14.0 2.0 31 8.0 NNW 20 33 11 18 1019.5 1019.5 0.0
14/01:00pm 19.1 14.0 3.3 35 7.4 NNW 19 30 10 16 1020.3 1020.3 0.0
14/12:30pm 17.8 12.7 3.9 39 6.5 NNW 20 30 11 16 1021.1 1021.1 0.0
14/12:00pm 17.4 13.0 4.5 42 6.1 NNW 17 24 9 13 1021.9 1021.9 0.0
14/11:30am 17.0 11.7 5.0 45 5.7 NNW 22 37 12 20 1022.9 1022.9 0.0
14/11:00am 15.6 10.8 5.5 51 4.8 NNW 20 32 11 17 1023.8 1023.8 0.0
14/10:30am 14.3 10.1 5.9 57 4.0 N 17 24 9 13 1024.1 1024.1 0.0
14/10:00am 12.7 8.2 5.9 63 3.2 N 19 28 10 15 1024.5 1024.5 0.0
14/09:30am 12.0 7.9 6.0 66 2.8 N 17 28 9 15 1024.9 1024.9 0.0
14/09:00am 10.2 6.8 6.1 76 1.9 N 13 20 7 11 1025.4 1025.4 0.2
14/08:30am 8.7 5.6 5.6 81 1.4 N 11 17 6 9 1025.9 1025.9 0.2
14/08:00am 6.7 5.6 4.9 88 0.8 CALM 0 7 0 4 1026.1 1026.1 0.2
14/07:30am 5.5 4.3 4.8 95 0.3 CALM 0 0 0 0 1026.3 1026.3 0.2
14/07:00am 1.0 -0.9 0.7 98 0.1 CALM 0 0 0 0 1026.1 1026.1 0.2
14/06:30am 1.7 0.0 1.7 100 0.0 CALM 0 0 0 0 1026.1 1026.1 0.2
14/06:00am 2.3 0.7 2.3 100 0.0 CALM 0 0 0 0 1026.0 1026.0 0.2
14/05:30am 2.7 1.1 2.4 98 0.1 CALM 0 0 0 0 1026.1 1026.1 0.2
14/05:00am 2.2 0.5 1.7 96 0.2 CALM 0 0 0 0 1026.2 1026.2 0.2
14/04:30am 4.8 3.6 4.6 99 0.1 CALM 0 0 0 0 1026.5 1026.5 0.0
14/04:00am 3.3 1.7 2.3 93 0.4 CALM 0 0 0 0 1026.4 1026.4 0.0
14/03:30am 2.6 0.9 1.6 93 0.4 CALM 0 0 0 0 1026.6 1026.6 0.0
14/03:00am 2.6 1.0 2.3 98 0.1 CALM 0 0 0 0 1026.8 1026.8 0.0
14/02:30am 2.9 1.2 2.1 94 0.3 CALM 0 0 0 0 1027.1 1027.1 0.0
14/02:00am 5.8 4.7 5.1 95 0.3 CALM 0 0 0 0 1027.4 1027.4 0.0
14/01:30am 5.2 4.1 5.2 100 0.0 CALM 0 0 0 0 1027.7 1027.7 0.0
14/01:00am 4.2 2.8 3.7 97 0.2 CALM 0 0 0 0 1027.9 1027.9 0.0
14/12:30am 4.7 3.4 4.0 95 0.3 CALM 0 0 0 0 1028.1 1028.1 0.0
14/12:00am 7.1 6.1 5.8 91 0.6 CALM 0 0 0 0 1028.2 1028.2 0.0
 
Date/Time
CST
Temp
°C
App
Temp
°C
Dew
Point
°C
Rel
Hum
%
Delta-T
°C
Wind Press
QNH
hPa
Press
MSL
hPa
Rain since
9am
mm
Dir  Spd
km/h
Gust
km/h
Spd
kts
Gust
kts
13/11:30pm 7.2 6.2 5.6 89 0.7 CALM 0 0 0 0 1028.5 1028.5 0.0
13/11:00pm 7.8 6.9 6.0 88 0.8 CALM 0 0 0 0 1028.7 1028.7 0.0
13/10:30pm 7.8 6.8 5.8 87 0.9 CALM 0 0 0 0 1029.0 1029.0 0.0
13/10:00pm 8.0 7.1 6.0 87 0.9 CALM 0 0 0 0 1029.1 1029.1 0.0
13/09:30pm 6.0 4.8 4.8 92 0.5 CALM 0 0 0 0 1029.0 1029.0 0.0
13/09:00pm 6.8 5.9 6.1 95 0.3 CALM 0 0 0 0 1028.9 1028.9 0.0
13/08:30pm 8.1 7.3 6.3 88 0.8 CALM 0 0 0 0 1028.9 1028.9 0.0
13/08:00pm 9.2 8.3 6.1 81 1.4 CALM 0 0 0 0 1028.8 1028.8 0.0
13/07:30pm 9.6 8.9 7.0 84 1.2 CALM 0 0 0 0 1028.8 1028.8 0.0

Other Formats:

Comma delimited format used in spreadsheet applications
http://www.bom.gov.au/fwo/IDS60801/IDS60801.94682.axf

JavaScript Object Notation format (JSON) in row-major order
http://www.bom.gov.au/fwo/IDS60801/IDS60801.94682.json